Etusivu
METAR-TAF:

METAR-TAF

Lentoasemat :

Havanna, Kuuba

Leveyspiiri: 22-59N, Pituuspiiri: 082-24W, korkeus merenpinnasta: 59 m

Tämänhetkinen sää

Tämä raportti tehtiin 31 minuuttia sitten, kello 22.55 UTC
Tuuli 7 kn idästä/koillisesta
Lämpötila 26°C
Kosteus 79%
Ilmanpaine 1017 hPa
Näkyvyys: 9000 m
Muutamia pilviä 3000 ft:n korkeudessa

METAR: MUHA 202255Z 06007KT 9000 FEW030 26/22 Q1017

Aika: 18:26 (23:26 UTC)

Sääennuste

Tämä raportti tehtiin 6 tuntia ja 26 minuuttia sitten, kello 17.00 UTC
Ennuste voimassa 20. päivästä klo 18 UTC - 21. päivään klo 18 UTC
Tuuli 7 kn idästä/koillisesta
Näkyvyys: 9000 m
Hajanaisia pilviä 3000 ft:n korkeudessa

TAF: MUHA 201700Z 2018/2118 07007KT 9000 SCT030

Säähavainnot ja -ennusteet yli 4000 lentoasemalta (METAR- ja TAF-raportit).

Käytössä olevat sääasemat on merkitty karttaan keltaisilla ja punaisilla pisteillä.

Aseta hiiri pisteen päälle nähdäksesi sääaseman nimen.

Klikkaa sitten nähdäksesi säähavainnot ja -ennusteet.

Kartan vaihtaminen: klikkaa mustalla rastilla varustettuja vihreitä pisteitä, niin voit zoomata sisään; viivalla varustettua vihreää pistettä, niin voit zoomata ulos tai vihreitä nuolia, niin pääset viereisille kartoille.


METAR-TAF: